Time;durP1;ratioP1;P1;durP2;ratioP2;P2;SDS_P1;SDS_P2;PMS_P1;PMS_P2;Temp;Humidity;BMP_temperature;BMP_pressure;BME280_temperature;BME280_humidity;BME280_pressure;Samples;Min_cycle;Max_cycle;Signal;HPM_P1;HPM_P2
2022/10/26 00:01:28;;;;;;;20.05;11.23;;;10.40;94.50;;;;;;5052211;28;20517;-73
2022/10/26 00:03:55;;;;;;;18.45;10.35;;;10.40;94.60;;;;;;5052146;28;20060;-73
2022/10/26 00:06:24;;;;;;;17.30;10.93;;;10.40;94.70;;;;;;5051763;28;20131;-74
2022/10/26 00:08:51;;;;;;;16.20;10.18;;;10.40;94.80;;;;;;5052438;28;20393;-74
2022/10/26 00:11:18;;;;;;;17.65;11.40;;;10.40;94.80;;;;;;5052142;28;20045;-73
2022/10/26 00:13:44;;;;;;;15.73;9.75;;;10.50;94.80;;;;;;5051981;28;20130;-74
2022/10/26 00:16:16;;;;;;;18.52;12.25;;;10.40;95.00;;;;;;5052027;28;20052;-73
2022/10/26 00:18:43;;;;;;;17.10;9.95;;;10.50;95.00;;;;;;5052342;28;20396;-75
2022/10/26 00:21:10;;;;;;;21.20;11.70;;;10.40;95.10;;;;;;5051886;28;20045;-73
2022/10/26 00:23:35;;;;;;;24.27;12.85;;;10.40;95.00;;;;;;5051908;28;20053;-74
2022/10/26 00:26:02;;;;;;;16.70;11.95;;;10.40;95.00;;;;;;5051837;28;20036;-74
2022/10/26 00:28:28;;;;;;;19.63;11.77;;;10.40;95.00;;;;;;5051761;28;20037;-74
2022/10/26 00:30:54;;;;;;;17.33;11.13;;;10.40;95.00;;;;;;5051824;28;20488;-73
2022/10/26 00:33:19;;;;;;;13.32;7.97;;;10.40;95.00;;;;;;5035295;28;20049;-74
2022/10/26 00:35:53;;;;;;;16.75;11.45;;;10.40;95.00;;;;;;5051911;28;20127;-73
2022/10/26 00:38:18;;;;;;;13.73;10.25;;;10.40;95.00;;;;;;5051705;28;20049;-74
2022/10/26 00:40:44;;;;;;;14.98;9.52;;;10.40;95.00;;;;;;5035049;28;20044;-74
2022/10/26 00:43:19;;;;;;;17.13;10.20;;;10.40;95.00;;;;;;5035091;28;20045;-74
2022/10/26 00:45:46;;;;;;;17.35;11.23;;;10.40;95.00;;;;;;5051786;28;20107;-74
2022/10/26 00:48:23;;;;;;;18.77;11.27;;;10.40;95.10;;;;;;5051628;28;20124;-73
2022/10/26 00:50:51;;;;;;;19.73;11.13;;;10.40;95.10;;;;;;5051619;28;20079;-74
2022/10/26 00:53:18;;;;;;;19.88;10.43;;;10.30;95.10;;;;;;5051739;28;20099;-74
2022/10/26 00:55:46;;;;;;;22.88;11.65;;;10.30;95.10;;;;;;5051429;28;20106;-74
2022/10/26 00:58:13;;;;;;;23.27;12.77;;;10.30;95.10;;;;;;5051475;28;20072;-74
2022/10/26 01:00:40;;;;;;;17.58;12.07;;;10.30;95.10;;;;;;5035133;28;20047;-74
2022/10/26 01:03:08;;;;;;;15.13;10.18;;;10.30;95.20;;;;;;5051222;28;20490;-74
2022/10/26 01:05:37;;;;;;;17.67;11.25;;;10.20;95.10;;;;;;5051472;28;20086;-74
2022/10/26 01:08:03;;;;;;;16.90;11.02;;;10.20;95.20;;;;;;5051326;28;20045;-74
2022/10/26 01:10:29;;;;;;;21.60;12.43;;;10.20;95.30;;;;;;5051355;28;20080;-73
2022/10/26 01:12:57;;;;;;;17.73;11.88;;;10.10;95.30;;;;;;5051275;28;20182;-74
2022/10/26 01:15:36;;;;;;;17.40;11.30;;;10.10;95.30;;;;;;5051277;28;20098;-73
2022/10/26 01:18:17;;;;;;;12.80;9.73;;;10.10;95.20;;;;;;5055311;28;20028;-73
2022/10/26 01:21:19;;;;;;;15.27;11.45;;;10.10;95.10;;;;;;5055268;28;20041;-74
2022/10/26 01:24:14;;;;;;;19.58;12.00;;;10.10;95.10;;;;;;5055479;28;20110;-74
2022/10/26 01:26:58;;;;;;;20.40;12.18;;;10.10;95.10;;;;;;5038584;28;20099;-74
2022/10/26 01:29:30;;;;;;;14.13;10.48;;;10.10;95.10;;;;;;5055235;28;20041;-74
2022/10/26 01:32:07;;;;;;;17.33;10.82;;;10.00;95.10;;;;;;5055096;28;20551;-74
2022/10/26 01:34:41;;;;;;;16.08;11.25;;;10.00;95.10;;;;;;5055058;28;20040;-74
2022/10/26 01:37:13;;;;;;;17.08;11.00;;;10.00;95.10;;;;;;5054997;28;20052;-74
2022/10/26 01:39:53;;;;;;;19.13;11.75;;;10.00;95.00;;;;;;5038696;28;20043;-74
2022/10/26 01:42:21;;;;;;;20.45;11.68;;;10.00;95.00;;;;;;5054898;28;20045;-75
2022/10/26 01:44:53;;;;;;;18.48;12.35;;;9.90;95.00;;;;;;5055052;28;20370;-74
2022/10/26 01:47:22;;;;;;;16.45;10.05;;;9.90;95.10;;;;;;5054840;28;20111;-74
2022/10/26 01:49:52;;;;;;;18.27;11.38;;;9.90;95.10;;;;;;5054975;28;20052;-73
2022/10/26 01:52:19;;;;;;;18.15;11.20;;;9.80;95.10;;;;;;5055060;28;20367;-74
2022/10/26 01:54:45;;;;;;;14.88;10.85;;;9.80;95.10;;;;;;5054864;28;20382;-74
2022/10/26 01:57:14;;;;;;;16.52;11.02;;;9.70;95.10;;;;;;5038101;28;20048;-73
2022/10/26 01:59:43;;;;;;;13.98;9.82;;;9.70;95.20;;;;;;5054769;28;20123;-73
2022/10/26 02:02:44;;;;;;;19.77;10.52;;;9.70;95.20;;;;;;5037967;28;20044;-73
2022/10/26 02:05:28;;;;;;;19.73;10.55;;;9.70;95.10;;;;;;5054684;28;20049;-74
2022/10/26 02:08:06;;;;;;;21.27;12.63;;;9.70;95.20;;;;;;5054768;28;20057;-73
2022/10/26 02:10:50;;;;;;;21.05;11.90;;;9.70;95.10;;;;;;5054369;28;20037;-74
2022/10/26 02:13:39;;;;;;;15.30;10.43;;;9.70;95.10;;;;;;5054359;28;20171;-73
2022/10/26 02:16:11;;;;;;;20.85;12.07;;;9.70;95.10;;;;;;5054331;28;20044;-73
2022/10/26 02:18:53;;;;;;;20.35;13.10;;;9.60;95.20;;;;;;5054300;28;20123;-74
2022/10/26 02:21:24;;;;;;;19.25;12.25;;;9.60;95.30;;;;;;5054192;28;20500;-74
2022/10/26 02:23:51;;;;;;;17.80;12.65;;;9.60;95.30;;;;;;5037540;28;20037;-73
2022/10/26 02:26:22;;;;;;;19.00;11.13;;;9.50;95.20;;;;;;5054407;28;20397;-73
2022/10/26 02:28:53;;;;;;;20.38;12.02;;;9.50;95.20;;;;;;5053333;28;20077;-73
2022/10/26 02:31:19;;;;;;;18.58;11.80;;;9.50;95.20;;;;;;5054031;28;20045;-74
2022/10/26 02:33:48;;;;;;;17.15;11.88;;;9.60;95.20;;;;;;5053877;28;20126;-74
2022/10/26 02:36:21;;;;;;;15.85;11.40;;;9.50;95.20;;;;;;5054152;28;20072;-74
2022/10/26 02:38:48;;;;;;;16.10;11.77;;;9.50;95.20;;;;;;5053863;28;20086;-74
2022/10/26 02:41:16;;;;;;;19.27;11.35;;;9.50;95.10;;;;;;5037335;28;20041;-73
2022/10/26 02:43:47;;;;;;;16.00;11.65;;;9.60;95.20;;;;;;5053670;28;20037;-73
2022/10/26 02:46:16;;;;;;;17.73;11.93;;;9.50;95.10;;;;;;5053765;28;20044;-73
2022/10/26 02:48:42;;;;;;;17.00;11.40;;;9.60;95.20;;;;;;5053690;28;20055;-73
2022/10/26 02:51:36;;;;;;;17.73;12.20;;;9.60;95.10;;;;;;5053613;28;20123;-74
2022/10/26 02:54:31;;;;;;;16.77;11.90;;;9.60;95.10;;;;;;5053560;28;20566;-74
2022/10/26 02:57:19;;;;;;;16.25;10.50;;;9.50;95.00;;;;;;5053819;28;20049;-73
2022/10/26 02:59:46;;;;;;;19.27;11.85;;;9.50;95.00;;;;;;5052930;28;20059;-73
2022/10/26 03:02:15;;;;;;;16.38;11.35;;;9.50;95.00;;;;;;5036776;28;20045;-73
2022/10/26 03:04:41;;;;;;;14.50;11.02;;;9.50;94.90;;;;;;5053088;28;20052;-73
2022/10/26 03:07:06;;;;;;;16.92;11.77;;;9.50;94.90;;;;;;5053370;28;20068;-74
2022/10/26 03:09:32;;;;;;;20.60;12.80;;;9.50;94.90;;;;;;5053333;28;20409;-74
2022/10/26 03:11:58;;;;;;;16.00;11.38;;;9.50;94.90;;;;;;5053210;28;20063;-74
2022/10/26 03:14:23;;;;;;;18.80;12.55;;;9.60;95.00;;;;;;5053393;28;20099;-73
2022/10/26 03:16:49;;;;;;;19.48;12.32;;;9.60;95.10;;;;;;5053110;28;20088;-73
2022/10/26 03:19:15;;;;;;;18.55;11.80;;;9.60;95.10;;;;;;5053023;28;20049;-73
2022/10/26 03:21:41;;;;;;;17.08;11.10;;;9.70;95.10;;;;;;5052943;28;20041;-73
2022/10/26 03:24:07;;;;;;;19.58;12.35;;;9.60;95.00;;;;;;5036434;28;20041;-73
2022/10/26 03:26:33;;;;;;;14.00;11.35;;;9.70;95.10;;;;;;5052965;28;20049;-74
2022/10/26 03:28:59;;;;;;;16.27;11.50;;;9.80;95.10;;;;;;5052944;28;20101;-74
2022/10/26 03:31:25;;;;;;;17.10;10.63;;;9.70;95.10;;;;;;5036310;28;20052;-73
2022/10/26 03:33:50;;;;;;;18.17;11.50;;;9.80;95.10;;;;;;5052952;28;20041;-73
2022/10/26 03:36:16;;;;;;;31.25;12.60;;;9.80;95.10;;;;;;5052774;28;20401;-74
2022/10/26 03:38:42;;;;;;;13.93;9.52;;;9.80;95.20;;;;;;5052729;28;20080;-74
2022/10/26 03:41:07;;;;;;;17.55;11.88;;;9.90;95.20;;;;;;5035049;28;20131;-74
2022/10/26 03:43:33;;;;;;;19.83;12.90;;;9.90;95.30;;;;;;5036082;28;20041;-74
2022/10/26 03:45:59;;;;;;;16.52;12.48;;;9.90;95.20;;;;;;5035924;28;20045;-74
2022/10/26 03:48:24;;;;;;;17.02;11.85;;;9.90;95.20;;;;;;5052780;28;20041;-74
2022/10/26 03:50:50;;;;;;;21.02;14.25;;;9.90;95.20;;;;;;5052474;28;20481;-74
2022/10/26 03:53:16;;;;;;;19.48;14.32;;;10.00;95.20;;;;;;5052739;28;20029;-74
2022/10/26 03:55:45;;;;;;;24.35;14.73;;;10.00;95.20;;;;;;5052371;28;20040;-74
2022/10/26 03:58:10;;;;;;;22.83;16.10;;;10.00;95.20;;;;;;5035811;28;20099;-74
2022/10/26 04:00:36;;;;;;;24.15;17.63;;;10.00;95.30;;;;;;5052309;28;20041;-74
2022/10/26 04:03:02;;;;;;;15.10;12.65;;;10.00;95.30;;;;;;5052057;28;20085;-74
2022/10/26 04:05:28;;;;;;;19.70;14.60;;;10.00;95.30;;;;;;5052180;28;20045;-74
2022/10/26 04:07:59;;;;;;;20.98;16.08;;;10.00;95.30;;;;;;5035521;28;20087;-73
2022/10/26 04:10:26;;;;;;;23.45;17.35;;;10.00;95.30;;;;;;5052138;28;20116;-73
2022/10/26 04:12:53;;;;;;;23.35;16.85;;;10.00;95.30;;;;;;5052128;28;20049;-73
2022/10/26 04:15:19;;;;;;;24.55;17.10;;;10.10;95.30;;;;;;5051990;28;20041;-73
2022/10/26 04:17:45;;;;;;;22.25;16.40;;;10.10;95.30;;;;;;5052003;28;20056;-74
2022/10/26 04:20:12;;;;;;;26.88;18.65;;;10.00;95.30;;;;;;5035387;28;20045;-74
2022/10/26 04:22:38;;;;;;;22.00;16.85;;;10.10;95.30;;;;;;5051919;28;20102;-74
2022/10/26 04:25:05;;;;;;;22.95;16.75;;;10.10;95.40;;;;;;5052038;28;20041;-74
2022/10/26 04:27:31;;;;;;;24.38;17.02;;;10.10;95.50;;;;;;5051878;28;20120;-74
2022/10/26 04:29:56;;;;;;;25.70;18.63;;;10.10;95.50;;;;;;5035515;28;20171;-73
2022/10/26 04:32:22;;;;;;;23.58;17.27;;;10.10;95.50;;;;;;5052012;28;20048;-73
2022/10/26 04:34:48;;;;;;;25.52;18.27;;;10.20;95.50;;;;;;5051720;28;20447;-74
2022/10/26 04:37:13;;;;;;;33.83;19.40;;;10.20;95.50;;;;;;5051958;28;20051;-74
2022/10/26 04:39:39;;;;;;;24.80;19.23;;;10.30;95.60;;;;;;5052016;28;20045;-74
2022/10/26 04:42:05;;;;;;;27.17;20.63;;;10.30;95.50;;;;;;5051611;28;20041;-74
2022/10/26 04:44:30;;;;;;;26.48;18.35;;;10.30;95.60;;;;;;5051571;28;20045;-74
2022/10/26 04:46:56;;;;;;;27.33;18.65;;;10.30;95.60;;;;;;5035270;28;20037;-74
2022/10/26 04:49:22;;;;;;;24.35;19.13;;;10.30;95.70;;;;;;5051555;28;20440;-75
2022/10/26 04:51:47;;;;;;;25.80;18.35;;;10.30;95.70;;;;;;5034725;28;20045;-74
2022/10/26 04:54:13;;;;;;;23.10;17.70;;;10.30;95.80;;;;;;5051539;28;20062;-73
2022/10/26 04:56:39;;;;;;;27.50;18.83;;;10.30;95.70;;;;;;5051782;28;20063;-73
2022/10/26 04:59:05;;;;;;;28.45;17.95;;;10.30;95.70;;;;;;5051493;28;20123;-74
2022/10/26 05:01:31;;;;;;;26.63;19.02;;;10.30;95.70;;;;;;5051408;28;20048;-74
2022/10/26 05:03:56;;;;;;;31.20;18.23;;;10.40;95.70;;;;;;5051213;28;20057;-73
2022/10/26 05:06:22;;;;;;;28.25;19.70;;;10.30;95.70;;;;;;5034834;28;20036;-74
2022/10/26 05:08:48;;;;;;;19.17;14.18;;;10.40;95.70;;;;;;5051408;28;20072;-74
2022/10/26 05:11:14;;;;;;;28.40;17.70;;;10.30;95.70;;;;;;5051380;28;20056;-74
2022/10/26 05:13:40;;;;;;;27.05;19.00;;;10.40;95.80;;;;;;5051382;28;20087;-74
2022/10/26 05:16:06;;;;;;;22.48;17.85;;;10.40;95.70;;;;;;5051263;28;20187;-74
2022/10/26 05:18:32;;;;;;;25.85;21.35;;;10.40;95.80;;;;;;5051376;28;20135;-74
2022/10/26 05:20:58;;;;;;;30.90;20.88;;;10.40;95.80;;;;;;5051481;28;20183;-74
2022/10/26 05:23:23;;;;;;;26.27;20.05;;;10.40;95.80;;;;;;5051521;28;20482;-73
2022/10/26 05:25:49;;;;;;;27.75;20.80;;;10.40;95.90;;;;;;5034588;28;20123;-75
2022/10/26 05:28:16;;;;;;;24.55;18.08;;;10.50;95.80;;;;;;5051242;28;20033;-74
2022/10/26 05:30:43;;;;;;;23.88;18.60;;;10.50;95.80;;;;;;5051113;28;20044;-73
2022/10/26 05:33:10;;;;;;;26.52;17.42;;;10.50;95.70;;;;;;5051438;28;20033;-75
2022/10/26 05:35:37;;;;;;;27.60;19.60;;;10.50;95.70;;;;;;5051377;28;20134;-74
2022/10/26 05:38:07;;;;;;;28.02;19.00;;;10.50;95.70;;;;;;5051387;28;20045;-74
2022/10/26 05:40:33;;;;;;;25.40;19.25;;;10.60;95.60;;;;;;5051368;28;20037;-74
2022/10/26 05:43:03;;;;;;;22.98;16.92;;;10.60;95.60;;;;;;5051039;28;20512;-75
2022/10/26 05:45:29;;;;;;;25.40;17.60;;;10.60;95.60;;;;;;5034372;28;20045;-75
2022/10/26 05:47:55;;;;;;;27.83;20.27;;;10.60;95.60;;;;;;5051039;28;20040;-75
2022/10/26 05:50:20;;;;;;;21.05;16.80;;;10.60;95.60;;;;;;5051055;28;20043;-74
2022/10/26 05:52:48;;;;;;;23.85;18.33;;;10.60;95.70;;;;;;5051312;28;20099;-75
2022/10/26 05:55:16;;;;;;;20.67;15.25;;;10.60;95.60;;;;;;5050916;28;20053;-74
2022/10/26 05:57:42;;;;;;;29.70;19.38;;;10.60;95.60;;;;;;5050937;28;20098;-75
2022/10/26 06:00:20;;;;;;;26.35;18.42;;;10.60;95.70;;;;;;5051212;28;20126;-75
2022/10/26 06:02:46;;;;;;;33.70;20.05;;;10.70;95.60;;;;;;5050812;28;20076;-74
2022/10/26 06:05:22;;;;;;;18.02;13.43;;;10.60;95.70;;;;;;5054769;28;20087;-75
2022/10/26 06:07:48;;;;;;;24.10;16.42;;;10.60;95.60;;;;;;5054785;28;20090;-74
2022/10/26 06:10:15;;;;;;;22.98;16.38;;;10.60;95.60;;;;;;5054409;28;20067;-75
2022/10/26 06:12:41;;;;;;;27.05;19.00;;;10.60;95.70;;;;;;5052894;28;20041;-75
2022/10/26 06:15:11;;;;;;;25.70;18.17;;;10.60;95.70;;;;;;5057764;28;20056;-75
2022/10/26 06:17:55;;;;;;;28.83;18.30;;;10.60;95.70;;;;;;5059377;28;20088;-76
2022/10/26 06:20:29;;;;;;;28.15;18.45;;;10.50;95.70;;;;;;5059140;28;20036;-74
2022/10/26 06:23:04;;;;;;;28.27;19.05;;;10.50;95.80;;;;;;5056181;28;20128;-75
2022/10/26 06:25:32;;;;;;;22.58;16.45;;;10.50;95.70;;;;;;5060483;28;20052;-74
2022/10/26 06:28:13;;;;;;;23.25;16.77;;;10.50;95.80;;;;;;5042585;28;20179;-76
2022/10/26 06:30:40;;;;;;;20.60;17.23;;;10.50;95.80;;;;;;5060111;28;20040;-74
2022/10/26 06:33:09;;;;;;;23.23;18.17;;;10.40;95.80;;;;;;5073432;28;20392;-74
2022/10/26 06:35:42;;;;;;;23.23;17.27;;;10.40;95.80;;;;;;5073877;28;20040;-74
2022/10/26 06:38:15;;;;;;;22.45;17.92;;;10.40;95.80;;;;;;5073823;28;20055;-75
2022/10/26 06:40:43;;;;;;;22.38;15.07;;;10.40;95.80;;;;;;5067874;28;20079;-74
2022/10/26 06:43:18;;;;;;;22.27;16.45;;;10.40;95.80;;;;;;5064616;28;20036;-75
2022/10/26 06:45:51;;;;;;;19.88;14.93;;;10.40;95.80;;;;;;5073571;28;20171;-75
2022/10/26 06:48:21;;;;;;;26.75;17.90;;;10.40;95.70;;;;;;5074061;28;20121;-75
2022/10/26 06:50:54;;;;;;;22.35;16.17;;;10.30;95.70;;;;;;5073810;28;20083;-75
2022/10/26 06:53:29;;;;;;;24.45;16.15;;;10.40;95.80;;;;;;5057080;28;20477;-74
2022/10/26 06:55:58;;;;;;;26.27;17.13;;;10.30;95.80;;;;;;5073547;28;20086;-74
2022/10/26 06:58:29;;;;;;;15.50;12.90;;;10.40;96.00;;;;;;5073366;28;20048;-75
2022/10/26 07:00:55;;;;;;;22.05;15.38;;;10.40;96.00;;;;;;5073438;28;20040;-74
2022/10/26 07:03:21;;;;;;;20.48;15.80;;;10.40;96.00;;;;;;5073088;28;20082;-75
2022/10/26 07:05:47;;;;;;;22.52;16.17;;;10.40;96.10;;;;;;5073542;28;20040;-75
2022/10/26 07:08:13;;;;;;;19.73;15.48;;;10.50;96.10;;;;;;5073377;28;20076;-75
2022/10/26 07:10:39;;;;;;;25.20;17.17;;;10.50;96.20;;;;;;5040185;28;20041;-74
2022/10/26 07:13:09;;;;;;;20.52;15.10;;;10.50;96.20;;;;;;5056386;28;20048;-74
2022/10/26 07:15:36;;;;;;;24.10;16.58;;;10.50;96.20;;;;;;5073222;28;20048;-75
2022/10/26 07:18:06;;;;;;;23.15;15.98;;;10.60;96.10;;;;;;5073038;28;20492;-74
2022/10/26 07:20:38;;;;;;;28.50;17.42;;;10.60;96.10;;;;;;5073367;28;20066;-75
2022/10/26 07:23:07;;;;;;;25.90;17.17;;;10.70;96.10;;;;;;5072893;28;20045;-75
2022/10/26 07:25:34;;;;;;;18.77;13.75;;;10.80;96.30;;;;;;5056197;28;20484;-75
2022/10/26 07:28:00;;;;;;;25.60;15.45;;;10.80;96.30;;;;;;5072735;28;20071;-75
2022/10/26 07:30:29;;;;;;;23.98;17.30;;;10.80;96.30;;;;;;5061742;28;20040;-75
2022/10/26 07:33:12;;;;;;;26.75;17.20;;;10.90;96.40;;;;;;5052798;28;20548;-75
2022/10/26 07:35:39;;;;;;;26.77;16.42;;;11.00;96.40;;;;;;5052545;28;20045;-75
2022/10/26 07:38:05;;;;;;;21.63;15.95;;;11.00;96.40;;;;;;5052819;28;20044;-75
2022/10/26 07:40:31;;;;;;;23.77;14.95;;;11.00;96.40;;;;;;5052788;28;20045;-75
2022/10/26 07:42:58;;;;;;;20.75;14.82;;;11.10;96.20;;;;;;5035834;28;20126;-75
2022/10/26 07:45:26;;;;;;;19.83;13.50;;;11.20;96.20;;;;;;5036423;28;20513;-75
2022/10/26 07:47:51;;;;;;;20.80;13.40;;;11.20;96.20;;;;;;5052594;28;20044;-75
2022/10/26 07:50:17;;;;;;;19.80;14.15;;;11.30;96.10;;;;;;5052483;28;20033;-74
2022/10/26 07:52:43;;;;;;;22.38;14.60;;;11.40;96.00;;;;;;5052558;28;20040;-74
2022/10/26 07:55:09;;;;;;;19.08;13.35;;;11.40;96.00;;;;;;5035784;28;20511;-74
2022/10/26 07:57:35;;;;;;;17.55;12.13;;;11.50;95.90;;;;;;5052381;28;20400;-76
2022/10/26 08:00:02;;;;;;;18.65;12.40;;;11.50;95.80;;;;;;5052629;28;20041;-75
2022/10/26 08:02:28;;;;;;;17.67;12.10;;;11.60;95.70;;;;;;5035596;28;20107;-75
2022/10/26 08:04:54;;;;;;;18.77;11.40;;;11.70;95.70;;;;;;5052026;28;20235;-76
2022/10/26 08:07:20;;;;;;;16.80;11.80;;;11.70;95.60;;;;;;5052194;28;20044;-76
2022/10/26 08:09:46;;;;;;;14.32;10.55;;;11.70;95.50;;;;;;5035612;28;20079;-75
2022/10/26 08:12:15;;;;;;;14.85;12.60;;;11.80;95.50;;;;;;5052382;28;20041;-76
2022/10/26 08:14:41;;;;;;;15.82;11.63;;;11.80;95.30;;;;;;5051847;28;20053;-76
2022/10/26 08:17:07;;;;;;;17.00;11.95;;;11.90;95.40;;;;;;5051903;28;20048;-75
2022/10/26 08:19:33;;;;;;;15.85;11.13;;;12.00;95.40;;;;;;5051940;28;20555;-75
2022/10/26 08:21:59;;;;;;;13.82;10.82;;;12.00;95.30;;;;;;5052039;28;20056;-76
2022/10/26 08:24:25;;;;;;;18.38;10.45;;;12.20;95.20;;;;;;5051894;28;20067;-77
2022/10/26 08:26:50;;;;;;;16.08;10.38;;;12.20;95.10;;;;;;5051394;28;20037;-75
2022/10/26 08:29:16;;;;;;;14.52;11.40;;;12.30;95.00;;;;;;5035229;28;20052;-76
2022/10/26 08:31:42;;;;;;;19.83;10.90;;;12.40;95.00;;;;;;5052137;28;20052;-76
2022/10/26 08:34:08;;;;;;;19.92;11.20;;;12.50;95.10;;;;;;5035121;28;20074;-76
2022/10/26 08:36:33;;;;;;;13.50;10.13;;;12.70;94.90;;;;;;5052379;28;20045;-76
2022/10/26 08:38:59;;;;;;;13.93;10.07;;;12.70;94.70;;;;;;5051799;28;20493;-75
2022/10/26 08:41:36;;;;;;;14.07;9.80;;;12.90;94.50;;;;;;5052028;28;20045;-76
2022/10/26 08:44:09;;;;;;;14.00;10.27;;;12.90;94.40;;;;;;5051813;28;20041;-76
2022/10/26 08:46:38;;;;;;;14.05;9.63;;;13.00;94.30;;;;;;5051674;28;20047;-76
2022/10/26 08:49:19;;;;;;;12.40;9.15;;;13.10;94.10;;;;;;5051598;28;20045;-75
2022/10/26 08:51:46;;;;;;;15.15;8.88;;;13.20;93.60;;;;;;5051682;28;20055;-76
2022/10/26 08:54:37;;;;;;;10.63;7.63;;;13.30;93.60;;;;;;5034865;28;20048;-75
2022/10/26 08:57:34;;;;;;;12.82;7.65;;;13.40;93.70;;;;;;5065550;28;20048;-76
2022/10/26 09:00:06;;;;;;;12.07;7.90;;;13.50;93.40;;;;;;5059345;28;20053;-78
2022/10/26 09:02:32;;;;;;;14.23;7.13;;;13.70;93.30;;;;;;5071473;28;20405;-77
2022/10/26 09:04:59;;;;;;;12.15;6.10;;;13.80;93.20;;;;;;5054965;28;20051;-76
2022/10/26 09:07:40;;;;;;;12.07;6.70;;;14.00;91.70;;;;;;5071401;28;20052;-76
2022/10/26 09:10:34;;;;;;;11.00;6.35;;;14.00;92.40;;;;;;5071412;28;20554;-77
2022/10/26 09:13:20;;;;;;;11.00;6.50;;;14.20;91.90;;;;;;5071480;28;20041;-77
2022/10/26 09:16:08;;;;;;;9.07;6.22;;;14.30;90.60;;;;;;5071322;28;20500;-75
2022/10/26 09:19:16;;;;;;;12.48;6.75;;;14.40;90.20;;;;;;5071712;28;20040;-75
2022/10/26 09:21:53;;;;;;;11.77;6.43;;;14.50;89.20;;;;;;5071497;28;20412;-75
2022/10/26 09:24:29;;;;;;;9.75;6.38;;;14.50;89.70;;;;;;5071182;28;20037;-75
2022/10/26 09:27:01;;;;;;;10.82;6.25;;;14.50;89.20;;;;;;5065205;28;20044;-74
2022/10/26 09:29:37;;;;;;;9.18;6.00;;;14.70;89.50;;;;;;5052567;28;20048;-75
2022/10/26 09:32:05;;;;;;;10.25;6.70;;;14.70;88.80;;;;;;5057020;28;20064;-74
2022/10/26 09:34:41;;;;;;;7.93;6.18;;;14.90;88.70;;;;;;5052422;28;20044;-74
2022/10/26 09:37:45;;;;;;;10.40;6.38;;;15.00;88.60;;;;;;5054142;28;20095;-74
2022/10/26 09:40:17;;;;;;;9.45;6.53;;;15.00;88.60;;;;;;5059861;28;20395;-74
2022/10/26 09:42:51;;;;;;;11.68;6.00;;;15.10;88.50;;;;;;5059750;28;20041;-75
2022/10/26 09:45:28;;;;;;;9.43;5.30;;;15.20;89.00;;;;;;5069291;28;20049;-76
2022/10/26 09:47:58;;;;;;;8.80;5.57;;;15.40;87.80;;;;;;5057716;28;20056;-75
2022/10/26 09:50:34;;;;;;;11.40;5.25;;;15.40;88.70;;;;;;5060057;28;20051;-76
2022/10/26 09:53:01;;;;;;;9.25;5.20;;;15.40;87.60;;;;;;5055145;28;20041;-76
2022/10/26 09:55:27;;;;;;;9.50;5.78;;;15.50;88.00;;;;;;5054578;28;20124;-75
2022/10/26 09:57:56;;;;;;;10.07;5.47;;;15.40;87.80;;;;;;5054648;28;20086;-76
2022/10/26 10:00:24;;;;;;;9.85;4.70;;;15.40;87.00;;;;;;5054689;28;20110;-76
2022/10/26 10:02:55;;;;;;;7.18;5.35;;;15.40;87.70;;;;;;5037708;28;20041;-75
2022/10/26 10:05:32;;;;;;;9.30;4.88;;;15.40;87.60;;;;;;5054717;28;20045;-76
2022/10/26 10:08:15;;;;;;;8.98;4.50;;;15.40;87.50;;;;;;5058839;28;20492;-75
2022/10/26 10:10:56;;;;;;;7.82;4.40;;;15.40;88.00;;;;;;5074440;28;20400;-76
2022/10/26 10:13:24;;;;;;;10.05;4.40;;;15.40;88.10;;;;;;5057807;28;20505;-75
2022/10/26 10:15:52;;;;;;;8.13;4.35;;;15.50;86.70;;;;;;5057869;28;20397;-76
2022/10/26 10:18:23;;;;;;;10.95;4.40;;;15.60;87.70;;;;;;5074186;28;20043;-76
2022/10/26 10:20:54;;;;;;;9.15;4.20;;;15.60;87.50;;;;;;5074465;28;20037;-76
2022/10/26 10:23:28;;;;;;;5.95;4.75;;;15.70;86.90;;;;;;5074215;28;20039;-76
2022/10/26 10:26:10;;;;;;;7.23;5.00;;;15.70;86.60;;;;;;5074157;28;20040;-75
2022/10/26 10:28:36;;;;;;;7.50;4.70;;;15.80;86.90;;;;;;5074381;28;20033;-75
2022/10/26 10:31:16;;;;;;;8.68;4.20;;;15.80;87.50;;;;;;5073995;28;20051;-76
2022/10/26 10:33:44;;;;;;;8.32;4.28;;;15.80;86.60;;;;;;5074248;28;20127;-76
2022/10/26 10:36:14;;;;;;;6.90;4.70;;;15.70;86.20;;;;;;5073945;28;20044;-76
2022/10/26 10:38:42;;;;;;;9.05;4.68;;;15.80;87.00;;;;;;5072794;28;20477;-76
2022/10/26 10:41:20;;;;;;;7.38;4.65;;;15.90;87.30;;;;;;5072075;28;20128;-75
2022/10/26 10:44:00;;;;;;;10.10;4.47;;;16.00;87.50;;;;;;5073685;28;20044;-75
2022/10/26 10:46:26;;;;;;;9.07;4.25;;;16.00;86.80;;;;;;5057144;28;20037;-74
2022/10/26 10:49:02;;;;;;;7.43;4.35;;;16.00;86.30;;;;;;5073096;28;20481;-74
2022/10/26 10:51:35;;;;;;;6.13;3.97;;;16.20;87.00;;;;;;5073729;28;20048;-76
2022/10/26 10:54:01;;;;;;;6.05;3.78;;;16.40;86.80;;;;;;5057162;28;20052;-75
2022/10/26 10:56:48;;;;;;;7.55;5.10;;;16.40;86.60;;;;;;5057006;28;20078;-76
2022/10/26 10:59:36;;;;;;;6.80;3.38;;;16.50;86.30;;;;;;5073510;28;20052;-75
2022/10/26 11:02:24;;;;;;;6.35;3.30;;;16.60;84.40;;;;;;5073416;28;20477;-76
2022/10/26 11:04:58;;;;;;;6.40;3.60;;;16.80;85.00;;;;;;5073253;28;20135;-77
2022/10/26 11:07:25;;;;;;;4.75;3.35;;;16.90;84.30;;;;;;5056739;28;20473;-76
2022/10/26 11:09:53;;;;;;;7.63;3.58;;;17.00;83.10;;;;;;5073588;28;20078;-75
2022/10/26 11:12:22;;;;;;;9.00;4.25;;;17.10;83.40;;;;;;5073307;28;20048;-75
2022/10/26 11:15:13;;;;;;;6.47;3.20;;;17.20;83.40;;;;;;5056518;28;20036;-76
2022/10/26 11:17:49;;;;;;;5.50;3.45;;;17.40;83.60;;;;;;5073003;28;20052;-75
2022/10/26 11:20:20;;;;;;;10.88;4.68;;;17.50;83.70;;;;;;5073162;28;20496;-75
2022/10/26 11:22:54;;;;;;;6.68;3.72;;;17.60;82.90;;;;;;5073053;28;20127;-77
2022/10/26 11:25:28;;;;;;;7.65;4.65;;;17.70;82.50;;;;;;5056411;28;20041;-74
2022/10/26 11:28:00;;;;;;;5.95;3.45;;;17.80;82.30;;;;;;5073270;28;20033;-75
2022/10/26 11:30:29;;;;;;;6.72;4.22;;;17.90;82.30;;;;;;5072970;28;20476;-75
2022/10/26 11:33:11;;;;;;;8.55;4.45;;;18.00;82.50;;;;;;5073102;28;20399;-75
2022/10/26 11:35:46;;;;;;;6.95;5.00;;;18.00;82.30;;;;;;5056150;28;20048;-75
2022/10/26 11:38:30;;;;;;;8.30;4.32;;;18.00;81.60;;;;;;5072787;28;20048;-75
2022/10/26 11:41:43;;;;;;;7.80;4.20;;;18.10;80.80;;;;;;5072692;28;20051;-76
2022/10/26 11:44:28;;;;;;;11.30;4.28;;;18.10;80.10;;;;;;5067495;28;20485;-76
2022/10/26 11:47:16;;;;;;;7.15;3.85;;;18.10;80.50;;;;;;5072919;28;20090;-76
2022/10/26 11:49:45;;;;;;;9.82;4.60;;;18.00;80.00;;;;;;5072590;28;20072;-76
2022/10/26 11:52:29;;;;;;;9.90;4.03;;;18.20;80.50;;;;;;5072504;28;20135;-77
2022/10/26 11:54:59;;;;;;;9.18;4.50;;;18.10;80.30;;;;;;5072499;28;20164;-76
2022/10/26 11:57:27;;;;;;;7.78;4.20;;;18.10;80.40;;;;;;5072465;28;20048;-76
2022/10/26 12:00:05;;;;;;;8.68;4.13;;;18.10;80.50;;;;;;5072371;28;20074;-76
2022/10/26 12:02:37;;;;;;;6.82;4.32;;;18.00;81.10;;;;;;5074547;28;20051;-75
2022/10/26 12:05:25;;;;;;;10.23;5.00;;;17.70;81.20;;;;;;5077135;28;20448;-76
2022/10/26 12:07:54;;;;;;;10.60;5.10;;;17.50;82.10;;;;;;5061730;28;20457;-76
2022/10/26 12:10:30;;;;;;;10.32;4.90;;;17.60;82.40;;;;;;5055740;28;20076;-75
2022/10/26 12:13:18;;;;;;;9.68;4.72;;;17.80;82.50;;;;;;5072137;28;20052;-74
2022/10/26 12:15:44;;;;;;;12.90;4.75;;;17.90;81.70;;;;;;5072350;28;20127;-76
2022/10/26 12:18:13;;;;;;;7.70;4.80;;;18.00;82.10;;;;;;5072241;28;20556;-75
2022/10/26 12:20:38;;;;;;;7.38;4.45;;;18.10;81.70;;;;;;5071934;28;20094;-75
2022/10/26 12:23:07;;;;;;;10.30;4.63;;;18.30;81.70;;;;;;5071933;28;20044;-76
2022/10/26 12:25:33;;;;;;;8.90;6.07;;;18.30;80.30;;;;;;5055046;28;20548;-76
2022/10/26 12:27:59;;;;;;;10.30;5.70;;;18.40;80.80;;;;;;5071937;28;20080;-76
2022/10/26 12:30:33;;;;;;;10.88;5.72;;;18.40;80.80;;;;;;5071879;28;20044;-75
2022/10/26 12:33:04;;;;;;;;;;;18.50;80.90;;;;;;5072357;28;20044;-75
2022/10/26 12:35:41;;;;;;;8.13;5.15;;;18.50;80.80;;;;;;5071738;28;19922;-76
2022/10/26 12:38:46;;;;;;;11.43;4.97;;;18.60;80.80;;;;;;5071694;28;20085;-76
2022/10/26 12:41:23;;;;;;;9.63;4.88;;;18.70;80.80;;;;;;5071555;28;20048;-77
2022/10/26 12:43:49;;;;;;;10.88;5.65;;;18.70;80.20;;;;;;5071907;28;20113;-77
2022/10/26 12:46:15;;;;;;;10.20;5.78;;;18.70;80.60;;;;;;5071645;28;20051;-76
2022/10/26 12:48:47;;;;;;;10.25;4.88;;;18.70;80.30;;;;;;5048902;28;20044;-76
2022/10/26 12:51:27;;;;;;;10.30;5.47;;;18.70;81.00;;;;;;5054977;28;20048;-76
2022/10/26 12:54:17;;;;;;;9.98;4.63;;;18.70;80.80;;;;;;5071550;28;20047;-76